sensor_id;sensor_type;location;lat;lon;timestamp;P1;durP1;ratioP1;P2;durP2;ratioP2
8572;SDS011;4324;42.012;24.872;2023-04-06T00:00:31;11.77;;;10.57;;
8572;SDS011;4324;42.012;24.872;2023-04-06T00:02:58;10.30;;;9.40;;
8572;SDS011;4324;42.012;24.872;2023-04-06T00:05:25;10.93;;;9.93;;
8572;SDS011;4324;42.012;24.872;2023-04-06T00:07:53;10.70;;;9.70;;
8572;SDS011;4324;42.012;24.872;2023-04-06T00:10:22;10.33;;;9.40;;
8572;SDS011;4324;42.012;24.872;2023-04-06T00:12:49;10.80;;;9.70;;
8572;SDS011;4324;42.012;24.872;2023-04-06T00:15:16;10.53;;;9.53;;
8572;SDS011;4324;42.012;24.872;2023-04-06T00:17:43;10.50;;;9.60;;
8572;SDS011;4324;42.012;24.872;2023-04-06T00:20:10;10.40;;;9.40;;
8572;SDS011;4324;42.012;24.872;2023-04-06T00:22:38;10.90;;;9.90;;
8572;SDS011;4324;42.012;24.872;2023-04-06T00:25:05;11.10;;;10.07;;
8572;SDS011;4324;42.012;24.872;2023-04-06T00:27:33;10.70;;;9.73;;
8572;SDS011;4324;42.012;24.872;2023-04-06T00:30:00;9.83;;;8.93;;
8572;SDS011;4324;42.012;24.872;2023-04-06T00:32:28;11.33;;;10.23;;
8572;SDS011;4324;42.012;24.872;2023-04-06T00:34:55;11.73;;;10.63;;
8572;SDS011;4324;42.012;24.872;2023-04-06T00:37:22;11.73;;;10.53;;
8572;SDS011;4324;42.012;24.872;2023-04-06T00:39:49;9.77;;;8.87;;
8572;SDS011;4324;42.012;24.872;2023-04-06T00:42:16;11.63;;;10.53;;
8572;SDS011;4324;42.012;24.872;2023-04-06T00:44:51;11.00;;;9.90;;
8572;SDS011;4324;42.012;24.872;2023-04-06T00:47:19;11.63;;;10.60;;
8572;SDS011;4324;42.012;24.872;2023-04-06T00:49:46;10.43;;;9.33;;
8572;SDS011;4324;42.012;24.872;2023-04-06T00:52:13;10.60;;;9.60;;
8572;SDS011;4324;42.012;24.872;2023-04-06T00:54:40;10.53;;;9.47;;
8572;SDS011;4324;42.012;24.872;2023-04-06T00:57:07;11.17;;;10.07;;
8572;SDS011;4324;42.012;24.872;2023-04-06T00:59:34;10.80;;;9.77;;
8572;SDS011;4324;42.012;24.872;2023-04-06T01:02:02;10.17;;;9.27;;
8572;SDS011;4324;42.012;24.872;2023-04-06T01:04:29;10.73;;;9.73;;
8572;SDS011;4324;42.012;24.872;2023-04-06T01:06:56;11.60;;;10.50;;
8572;SDS011;4324;42.012;24.872;2023-04-06T01:09:23;11.40;;;10.30;;
8572;SDS011;4324;42.012;24.872;2023-04-06T01:11:51;11.10;;;10.03;;
8572;SDS011;4324;42.012;24.872;2023-04-06T01:14:18;12.17;;;10.43;;
8572;SDS011;4324;42.012;24.872;2023-04-06T01:16:45;10.27;;;9.10;;
8572;SDS011;4324;42.012;24.872;2023-04-06T01:19:14;11.53;;;10.03;;
8572;SDS011;4324;42.012;24.872;2023-04-06T01:21:41;12.63;;;10.43;;
8572;SDS011;4324;42.012;24.872;2023-04-06T01:24:09;14.17;;;11.33;;
8572;SDS011;4324;42.012;24.872;2023-04-06T01:26:37;11.33;;;10.03;;
8572;SDS011;4324;42.012;24.872;2023-04-06T01:29:05;13.10;;;11.70;;
8572;SDS011;4324;42.012;24.872;2023-04-06T01:31:32;11.93;;;10.60;;
8572;SDS011;4324;42.012;24.872;2023-04-06T01:33:58;13.80;;;12.43;;
8572;SDS011;4324;42.012;24.872;2023-04-06T01:36:25;11.43;;;10.20;;
8572;SDS011;4324;42.012;24.872;2023-04-06T01:38:52;12.70;;;11.27;;
8572;SDS011;4324;42.012;24.872;2023-04-06T01:41:21;13.20;;;11.80;;
8572;SDS011;4324;42.012;24.872;2023-04-06T01:43:48;11.83;;;10.43;;
8572;SDS011;4324;42.012;24.872;2023-04-06T01:46:15;11.70;;;10.50;;
8572;SDS011;4324;42.012;24.872;2023-04-06T01:48:42;11.37;;;10.23;;
8572;SDS011;4324;42.012;24.872;2023-04-06T01:51:09;11.77;;;10.53;;
8572;SDS011;4324;42.012;24.872;2023-04-06T01:53:36;11.40;;;10.20;;
8572;SDS011;4324;42.012;24.872;2023-04-06T01:56:04;12.67;;;11.33;;
8572;SDS011;4324;42.012;24.872;2023-04-06T01:58:33;11.63;;;10.57;;
8572;SDS011;4324;42.012;24.872;2023-04-06T02:01:00;10.77;;;9.67;;
8572;SDS011;4324;42.012;24.872;2023-04-06T02:03:27;10.90;;;9.87;;
8572;SDS011;4324;42.012;24.872;2023-04-06T02:05:54;16.20;;;11.23;;
8572;SDS011;4324;42.012;24.872;2023-04-06T02:08:21;13.73;;;12.33;;
8572;SDS011;4324;42.012;24.872;2023-04-06T02:10:47;14.27;;;11.57;;
8572;SDS011;4324;42.012;24.872;2023-04-06T02:13:14;11.47;;;10.30;;
8572;SDS011;4324;42.012;24.872;2023-04-06T02:15:43;13.23;;;11.30;;
8572;SDS011;4324;42.012;24.872;2023-04-06T02:18:10;11.90;;;10.80;;
8572;SDS011;4324;42.012;24.872;2023-04-06T02:20:37;11.57;;;10.43;;
8572;SDS011;4324;42.012;24.872;2023-04-06T02:23:04;12.77;;;10.73;;
8572;SDS011;4324;42.012;24.872;2023-04-06T02:25:31;10.53;;;9.53;;
8572;SDS011;4324;42.012;24.872;2023-04-06T02:27:58;10.83;;;9.77;;
8572;SDS011;4324;42.012;24.872;2023-04-06T02:30:25;11.87;;;10.67;;
8572;SDS011;4324;42.012;24.872;2023-04-06T02:32:54;11.70;;;10.60;;
8572;SDS011;4324;42.012;24.872;2023-04-06T02:35:21;13.13;;;10.57;;
8572;SDS011;4324;42.012;24.872;2023-04-06T02:37:48;13.37;;;10.90;;
8572;SDS011;4324;42.012;24.872;2023-04-06T02:40:14;11.50;;;10.40;;
8572;SDS011;4324;42.012;24.872;2023-04-06T02:42:42;11.50;;;10.40;;
8572;SDS011;4324;42.012;24.872;2023-04-06T02:45:09;12.60;;;11.30;;
8572;SDS011;4324;42.012;24.872;2023-04-06T02:47:36;12.27;;;11.07;;
8572;SDS011;4324;42.012;24.872;2023-04-06T02:50:04;13.57;;;11.43;;
8572;SDS011;4324;42.012;24.872;2023-04-06T02:52:32;11.60;;;10.40;;
8572;SDS011;4324;42.012;24.872;2023-04-06T02:54:59;11.70;;;10.60;;
8572;SDS011;4324;42.012;24.872;2023-04-06T02:57:25;13.53;;;12.13;;
8572;SDS011;4324;42.012;24.872;2023-04-06T02:59:52;12.40;;;11.10;;
8572;SDS011;4324;42.012;24.872;2023-04-06T03:02:19;15.30;;;11.50;;
8572;SDS011;4324;42.012;24.872;2023-04-06T03:04:46;12.43;;;10.57;;
8572;SDS011;4324;42.012;24.872;2023-04-06T03:07:15;12.57;;;11.33;;
8572;SDS011;4324;42.012;24.872;2023-04-06T03:09:42;13.13;;;10.63;;
8572;SDS011;4324;42.012;24.872;2023-04-06T03:12:09;12.27;;;10.93;;
8572;SDS011;4324;42.012;24.872;2023-04-06T03:14:36;12.33;;;11.07;;
8572;SDS011;4324;42.012;24.872;2023-04-06T03:17:03;13.97;;;12.20;;
8572;SDS011;4324;42.012;24.872;2023-04-06T03:19:30;14.00;;;12.40;;
8572;SDS011;4324;42.012;24.872;2023-04-06T03:21:57;11.60;;;10.50;;
8572;SDS011;4324;42.012;24.872;2023-04-06T03:24:25;10.17;;;9.20;;
8572;SDS011;4324;42.012;24.872;2023-04-06T03:26:52;10.97;;;9.97;;
8572;SDS011;4324;42.012;24.872;2023-04-06T03:29:19;10.70;;;9.60;;
8572;SDS011;4324;42.012;24.872;2023-04-06T03:31:45;11.53;;;10.33;;
8572;SDS011;4324;42.012;24.872;2023-04-06T03:34:12;10.40;;;9.40;;
8572;SDS011;4324;42.012;24.872;2023-04-06T03:36:39;11.63;;;10.47;;
8572;SDS011;4324;42.012;24.872;2023-04-06T03:39:07;11.60;;;10.40;;
8572;SDS011;4324;42.012;24.872;2023-04-06T03:41:35;11.70;;;10.57;;
8572;SDS011;4324;42.012;24.872;2023-04-06T03:44:02;11.30;;;10.10;;
8572;SDS011;4324;42.012;24.872;2023-04-06T03:46:29;10.67;;;9.60;;
8572;SDS011;4324;42.012;24.872;2023-04-06T03:48:56;10.60;;;9.53;;
8572;SDS011;4324;42.012;24.872;2023-04-06T03:51:23;12.40;;;10.50;;
8572;SDS011;4324;42.012;24.872;2023-04-06T03:53:50;12.70;;;11.40;;
8572;SDS011;4324;42.012;24.872;2023-04-06T03:56:17;11.37;;;9.63;;
8572;SDS011;4324;42.012;24.872;2023-04-06T03:58:45;13.07;;;11.63;;
8572;SDS011;4324;42.012;24.872;2023-04-06T04:01:15;11.57;;;10.47;;
8572;SDS011;4324;42.012;24.872;2023-04-06T04:03:42;18.50;;;10.73;;
8572;SDS011;4324;42.012;24.872;2023-04-06T04:06:09;11.27;;;10.17;;
8572;SDS011;4324;42.012;24.872;2023-04-06T04:08:36;9.77;;;8.87;;
8572;SDS011;4324;42.012;24.872;2023-04-06T04:11:03;10.00;;;9.00;;
8572;SDS011;4324;42.012;24.872;2023-04-06T04:13:30;9.70;;;8.80;;
8572;SDS011;4324;42.012;24.872;2023-04-06T04:15:59;9.93;;;8.93;;
8572;SDS011;4324;42.012;24.872;2023-04-06T04:18:26;10.20;;;8.87;;
8572;SDS011;4324;42.012;24.872;2023-04-06T04:20:53;10.43;;;9.43;;
8572;SDS011;4324;42.012;24.872;2023-04-06T04:23:20;9.93;;;8.97;;
8572;SDS011;4324;42.012;24.872;2023-04-06T04:25:47;8.13;;;7.37;;
8572;SDS011;4324;42.012;24.872;2023-04-06T04:28:16;12.30;;;8.30;;
8572;SDS011;4324;42.012;24.872;2023-04-06T04:30:43;8.43;;;7.63;;
8572;SDS011;4324;42.012;24.872;2023-04-06T04:33:11;9.33;;;7.83;;
8572;SDS011;4324;42.012;24.872;2023-04-06T04:35:38;8.40;;;7.60;;
8572;SDS011;4324;42.012;24.872;2023-04-06T04:38:05;7.57;;;6.77;;
8572;SDS011;4324;42.012;24.872;2023-04-06T04:40:32;8.77;;;7.97;;
8572;SDS011;4324;42.012;24.872;2023-04-06T04:42:59;8.87;;;7.93;;
8572;SDS011;4324;42.012;24.872;2023-04-06T04:45:26;8.57;;;7.63;;
8572;SDS011;4324;42.012;24.872;2023-04-06T04:47:53;9.73;;;8.70;;
8572;SDS011;4324;42.012;24.872;2023-04-06T04:50:21;9.27;;;8.43;;
8572;SDS011;4324;42.012;24.872;2023-04-06T04:52:48;9.27;;;8.37;;
8572;SDS011;4324;42.012;24.872;2023-04-06T04:55:15;8.53;;;7.73;;
8572;SDS011;4324;42.012;24.872;2023-04-06T04:57:43;19.57;;;12.40;;
8572;SDS011;4324;42.012;24.872;2023-04-06T05:00:10;9.23;;;8.17;;
8572;SDS011;4324;42.012;24.872;2023-04-06T05:02:38;7.03;;;5.33;;
8572;SDS011;4324;42.012;24.872;2023-04-06T05:05:05;8.83;;;8.00;;
8572;SDS011;4324;42.012;24.872;2023-04-06T05:07:34;8.70;;;7.97;;
8572;SDS011;4324;42.012;24.872;2023-04-06T05:10:01;9.97;;;8.97;;
8572;SDS011;4324;42.012;24.872;2023-04-06T05:12:28;9.20;;;8.33;;
8572;SDS011;4324;42.012;24.872;2023-04-06T05:14:55;9.37;;;7.57;;
8572;SDS011;4324;42.012;24.872;2023-04-06T05:17:22;8.20;;;7.40;;
8572;SDS011;4324;42.012;24.872;2023-04-06T05:19:49;10.70;;;9.10;;
8572;SDS011;4324;42.012;24.872;2023-04-06T05:22:16;11.17;;;8.33;;
8572;SDS011;4324;42.012;24.872;2023-04-06T05:24:45;8.17;;;6.90;;
8572;SDS011;4324;42.012;24.872;2023-04-06T05:27:12;8.10;;;7.30;;
8572;SDS011;4324;42.012;24.872;2023-04-06T05:29:39;8.10;;;7.30;;
8572;SDS011;4324;42.012;24.872;2023-04-06T05:32:07;10.63;;;8.53;;
8572;SDS011;4324;42.012;24.872;2023-04-06T05:34:33;10.93;;;7.97;;
8572;SDS011;4324;42.012;24.872;2023-04-06T05:37:00;9.13;;;8.10;;
8572;SDS011;4324;42.012;24.872;2023-04-06T05:39:27;8.83;;;8.03;;
8572;SDS011;4324;42.012;24.872;2023-04-06T05:41:55;9.33;;;8.37;;
8572;SDS011;4324;42.012;24.872;2023-04-06T05:44:22;6.73;;;6.07;;
8572;SDS011;4324;42.012;24.872;2023-04-06T05:46:49;8.17;;;7.47;;
8572;SDS011;4324;42.012;24.872;2023-04-06T05:49:16;10.50;;;9.43;;
8572;SDS011;4324;42.012;24.872;2023-04-06T05:51:43;11.37;;;10.17;;
8572;SDS011;4324;42.012;24.872;2023-04-06T05:54:10;9.87;;;8.87;;
8572;SDS011;4324;42.012;24.872;2023-04-06T05:56:37;10.77;;;9.60;;
8572;SDS011;4324;42.012;24.872;2023-04-06T05:59:05;9.80;;;8.87;;
8572;SDS011;4324;42.012;24.872;2023-04-06T06:01:32;11.77;;;10.10;;
8572;SDS011;4324;42.012;24.872;2023-04-06T06:04:01;12.07;;;10.90;;
8572;SDS011;4324;42.012;24.872;2023-04-06T06:06:29;14.80;;;13.23;;
8572;SDS011;4324;42.012;24.872;2023-04-06T06:08:56;12.87;;;11.37;;
8572;SDS011;4324;42.012;24.872;2023-04-06T06:11:24;26.67;;;10.20;;
8572;SDS011;4324;42.012;24.872;2023-04-06T06:13:51;15.97;;;10.00;;
8572;SDS011;4324;42.012;24.872;2023-04-06T06:16:20;12.57;;;10.57;;
8572;SDS011;4324;42.012;24.872;2023-04-06T06:18:48;11.07;;;9.93;;
8572;SDS011;4324;42.012;24.872;2023-04-06T06:21:14;14.13;;;12.70;;
8572;SDS011;4324;42.012;24.872;2023-04-06T06:23:47;9.50;;;8.60;;
8572;SDS011;4324;42.012;24.872;2023-04-06T06:26:22;12.43;;;11.23;;
8572;SDS011;4324;42.012;24.872;2023-04-06T06:28:49;14.13;;;12.60;;
8572;SDS011;4324;42.012;24.872;2023-04-06T06:31:16;18.67;;;16.00;;
8572;SDS011;4324;42.012;24.872;2023-04-06T06:33:47;18.77;;;16.67;;
8572;SDS011;4324;42.012;24.872;2023-04-06T06:36:15;9.07;;;8.17;;
8572;SDS011;4324;42.012;24.872;2023-04-06T06:38:42;9.70;;;8.70;;
8572;SDS011;4324;42.012;24.872;2023-04-06T06:41:09;8.73;;;7.87;;
8572;SDS011;4324;42.012;24.872;2023-04-06T06:43:36;8.20;;;7.40;;
8572;SDS011;4324;42.012;24.872;2023-04-06T06:46:04;11.90;;;9.33;;
8572;SDS011;4324;42.012;24.872;2023-04-06T06:48:31;8.57;;;7.77;;
8572;SDS011;4324;42.012;24.872;2023-04-06T06:50:59;8.20;;;7.50;;
8572;SDS011;4324;42.012;24.872;2023-04-06T06:53:26;8.03;;;7.03;;
8572;SDS011;4324;42.012;24.872;2023-04-06T06:55:53;7.70;;;7.00;;
8572;SDS011;4324;42.012;24.872;2023-04-06T06:58:21;8.07;;;7.37;;
8572;SDS011;4324;42.012;24.872;2023-04-06T07:00:48;8.47;;;7.73;;
8572;SDS011;4324;42.012;24.872;2023-04-06T07:03:15;9.20;;;8.30;;
8572;SDS011;4324;42.012;24.872;2023-04-06T07:05:44;10.83;;;9.53;;
8572;SDS011;4324;42.012;24.872;2023-04-06T07:08:16;10.13;;;9.10;;
8572;SDS011;4324;42.012;24.872;2023-04-06T07:10:43;8.77;;;6.77;;
8572;SDS011;4324;42.012;24.872;2023-04-06T07:13:10;6.70;;;6.03;;
8572;SDS011;4324;42.012;24.872;2023-04-06T07:15:37;6.33;;;5.17;;
8572;SDS011;4324;42.012;24.872;2023-04-06T07:18:04;5.73;;;5.23;;
8572;SDS011;4324;42.012;24.872;2023-04-06T07:20:32;4.63;;;4.23;;
8572;SDS011;4324;42.012;24.872;2023-04-06T07:22:59;5.40;;;4.70;;
8572;SDS011;4324;42.012;24.872;2023-04-06T07:25:29;5.13;;;4.00;;
8572;SDS011;4324;42.012;24.872;2023-04-06T07:27:56;4.50;;;4.10;;
8572;SDS011;4324;42.012;24.872;2023-04-06T07:30:23;4.90;;;4.10;;
8572;SDS011;4324;42.012;24.872;2023-04-06T07:32:51;4.70;;;4.27;;
8572;SDS011;4324;42.012;24.872;2023-04-06T07:35:20;5.00;;;4.50;;
8572;SDS011;4324;42.012;24.872;2023-04-06T07:37:47;5.17;;;4.67;;
8572;SDS011;4324;42.012;24.872;2023-04-06T07:40:15;5.87;;;5.27;;
8572;SDS011;4324;42.012;24.872;2023-04-06T07:42:43;4.50;;;4.10;;
8572;SDS011;4324;42.012;24.872;2023-04-06T07:45:10;3.57;;;3.27;;
8572;SDS011;4324;42.012;24.872;2023-04-06T07:47:37;4.83;;;4.37;;
8572;SDS011;4324;42.012;24.872;2023-04-06T07:50:05;3.60;;;3.30;;
8572;SDS011;4324;42.012;24.872;2023-04-06T07:52:32;4.80;;;4.40;;
8572;SDS011;4324;42.012;24.872;2023-04-06T07:54:59;3.80;;;3.50;;
8572;SDS011;4324;42.012;24.872;2023-04-06T07:57:26;4.10;;;3.70;;
8572;SDS011;4324;42.012;24.872;2023-04-06T07:59:55;4.97;;;4.47;;
8572;SDS011;4324;42.012;24.872;2023-04-06T08:02:22;4.73;;;3.97;;
8572;SDS011;4324;42.012;24.872;2023-04-06T08:04:49;3.30;;;3.00;;
8572;SDS011;4324;42.012;24.872;2023-04-06T08:07:16;3.37;;;3.07;;
8572;SDS011;4324;42.012;24.872;2023-04-06T08:09:43;4.60;;;4.20;;
8572;SDS011;4324;42.012;24.872;2023-04-06T08:12:10;4.87;;;4.47;;
8572;SDS011;4324;42.012;24.872;2023-04-06T08:14:37;5.40;;;4.90;;
8572;SDS011;4324;42.012;24.872;2023-04-06T08:17:05;5.37;;;4.43;;
8572;SDS011;4324;42.012;24.872;2023-04-06T08:19:32;4.60;;;4.20;;
8572;SDS011;4324;42.012;24.872;2023-04-06T08:21:59;5.50;;;5.00;;
8572;SDS011;4324;42.012;24.872;2023-04-06T08:24:27;3.43;;;2.87;;
8572;SDS011;4324;42.012;24.872;2023-04-06T08:26:54;4.53;;;4.20;;
8572;SDS011;4324;42.012;24.872;2023-04-06T08:29:21;5.47;;;5.00;;
8572;SDS011;4324;42.012;24.872;2023-04-06T08:31:48;6.10;;;4.03;;
8572;SDS011;4324;42.012;24.872;2023-04-06T08:34:16;4.50;;;4.10;;
8572;SDS011;4324;42.012;24.872;2023-04-06T08:36:44;4.77;;;4.37;;
8572;SDS011;4324;42.012;24.872;2023-04-06T08:39:11;4.63;;;3.37;;
8572;SDS011;4324;42.012;24.872;2023-04-06T08:41:41;4.17;;;3.50;;
8572;SDS011;4324;42.012;24.872;2023-04-06T08:44:08;6.17;;;5.53;;
8572;SDS011;4324;42.012;24.872;2023-04-06T08:46:35;5.07;;;4.20;;
8572;SDS011;4324;42.012;24.872;2023-04-06T08:49:02;3.50;;;3.20;;
8572;SDS011;4324;42.012;24.872;2023-04-06T08:51:34;5.23;;;4.57;;
8572;SDS011;4324;42.012;24.872;2023-04-06T08:54:03;6.93;;;4.97;;
8572;SDS011;4324;42.012;24.872;2023-04-06T08:56:31;3.47;;;3.03;;
8572;SDS011;4324;42.012;24.872;2023-04-06T08:58:58;5.83;;;5.10;;
8572;SDS011;4324;42.012;24.872;2023-04-06T09:01:25;5.70;;;5.10;;
8572;SDS011;4324;42.012;24.872;2023-04-06T09:03:55;5.20;;;4.63;;
8572;SDS011;4324;42.012;24.872;2023-04-06T09:06:25;4.90;;;4.50;;
8572;SDS011;4324;42.012;24.872;2023-04-06T09:08:54;6.33;;;5.77;;
8572;SDS011;4324;42.012;24.872;2023-04-06T09:11:21;7.17;;;5.80;;
8572;SDS011;4324;42.012;24.872;2023-04-06T09:13:49;5.30;;;4.60;;
8572;SDS011;4324;42.012;24.872;2023-04-06T09:16:18;6.03;;;5.53;;
8572;SDS011;4324;42.012;24.872;2023-04-06T09:18:45;4.73;;;4.33;;
8572;SDS011;4324;42.012;24.872;2023-04-06T09:21:15;5.03;;;4.63;;
8572;SDS011;4324;42.012;24.872;2023-04-06T09:23:43;4.70;;;4.20;;
8572;SDS011;4324;42.012;24.872;2023-04-06T09:26:13;6.00;;;5.40;;
8572;SDS011;4324;42.012;24.872;2023-04-06T09:28:41;6.00;;;3.77;;
8572;SDS011;4324;42.012;24.872;2023-04-06T09:31:09;4.93;;;4.37;;
8572;SDS011;4324;42.012;24.872;2023-04-06T09:33:37;5.03;;;4.53;;
8572;SDS011;4324;42.012;24.872;2023-04-06T09:36:05;6.37;;;5.77;;
8572;SDS011;4324;42.012;24.872;2023-04-06T09:38:50;7.10;;;6.40;;
8572;SDS011;4324;42.012;24.872;2023-04-06T09:41:22;7.23;;;6.33;;
8572;SDS011;4324;42.012;24.872;2023-04-06T09:43:50;8.43;;;6.67;;
8572;SDS011;4324;42.012;24.872;2023-04-06T09:46:17;6.37;;;5.77;;
8572;SDS011;4324;42.012;24.872;2023-04-06T09:48:48;5.97;;;5.50;;
8572;SDS011;4324;42.012;24.872;2023-04-06T09:51:16;7.13;;;6.43;;
8572;SDS011;4324;42.012;24.872;2023-04-06T09:53:45;7.60;;;6.53;;
8572;SDS011;4324;42.012;24.872;2023-04-06T09:56:20;6.00;;;5.50;;
8572;SDS011;4324;42.012;24.872;2023-04-06T09:58:55;6.90;;;6.07;;
8572;SDS011;4324;42.012;24.872;2023-04-06T10:01:28;7.27;;;6.30;;
8572;SDS011;4324;42.012;24.872;2023-04-06T10:04:01;6.23;;;5.57;;
8572;SDS011;4324;42.012;24.872;2023-04-06T10:06:37;6.80;;;6.20;;
8572;SDS011;4324;42.012;24.872;2023-04-06T10:09:06;5.63;;;5.13;;
8572;SDS011;4324;42.012;24.872;2023-04-06T10:11:35;6.70;;;6.10;;
8572;SDS011;4324;42.012;24.872;2023-04-06T10:14:03;5.07;;;4.67;;
8572;SDS011;4324;42.012;24.872;2023-04-06T10:16:30;5.53;;;5.03;;
8572;SDS011;4324;42.012;24.872;2023-04-06T10:18:58;6.47;;;5.73;;
8572;SDS011;4324;42.012;24.872;2023-04-06T10:21:31;5.90;;;5.30;;
8572;SDS011;4324;42.012;24.872;2023-04-06T10:24:01;7.03;;;6.30;;
8572;SDS011;4324;42.012;24.872;2023-04-06T10:26:36;7.00;;;6.40;;
8572;SDS011;4324;42.012;24.872;2023-04-06T10:29:03;5.80;;;5.30;;
8572;SDS011;4324;42.012;24.872;2023-04-06T10:31:31;5.33;;;4.83;;
8572;SDS011;4324;42.012;24.872;2023-04-06T10:33:59;6.03;;;5.53;;
8572;SDS011;4324;42.012;24.872;2023-04-06T10:36:27;6.73;;;5.67;;
8572;SDS011;4324;42.012;24.872;2023-04-06T10:38:58;5.77;;;5.27;;
8572;SDS011;4324;42.012;24.872;2023-04-06T10:41:31;5.40;;;4.90;;
8572;SDS011;4324;42.012;24.872;2023-04-06T10:44:01;6.50;;;5.50;;
8572;SDS011;4324;42.012;24.872;2023-04-06T10:46:29;5.77;;;5.27;;
8572;SDS011;4324;42.012;24.872;2023-04-06T10:48:56;6.00;;;5.40;;
8572;SDS011;4324;42.012;24.872;2023-04-06T10:51:26;6.30;;;5.70;;
8572;SDS011;4324;42.012;24.872;2023-04-06T10:53:54;7.17;;;5.80;;
8572;SDS011;4324;42.012;24.872;2023-04-06T10:56:23;6.37;;;5.77;;
8572;SDS011;4324;42.012;24.872;2023-04-06T10:58:53;6.33;;;5.77;;
8572;SDS011;4324;42.012;24.872;2023-04-06T11:01:23;8.07;;;6.83;;
8572;SDS011;4324;42.012;24.872;2023-04-06T11:03:53;7.17;;;6.50;;
8572;SDS011;4324;42.012;24.872;2023-04-06T11:06:21;8.23;;;6.67;;
8572;SDS011;4324;42.012;24.872;2023-04-06T11:08:49;6.20;;;5.60;;
8572;SDS011;4324;42.012;24.872;2023-04-06T11:11:17;6.83;;;5.97;;
8572;SDS011;4324;42.012;24.872;2023-04-06T11:13:46;7.33;;;6.63;;
8572;SDS011;4324;42.012;24.872;2023-04-06T11:16:15;7.13;;;6.43;;
8572;SDS011;4324;42.012;24.872;2023-04-06T11:18:51;6.17;;;5.67;;
8572;SDS011;4324;42.012;24.872;2023-04-06T11:21:20;7.40;;;6.23;;
8572;SDS011;4324;42.012;24.872;2023-04-06T11:24:03;6.33;;;5.73;;
8572;SDS011;4324;42.012;24.872;2023-04-06T11:26:31;10.23;;;6.60;;
8572;SDS011;4324;42.012;24.872;2023-04-06T11:29:02;6.20;;;5.60;;
8572;SDS011;4324;42.012;24.872;2023-04-06T11:31:30;6.27;;;5.70;;
8572;SDS011;4324;42.012;24.872;2023-04-06T11:33:58;7.63;;;5.17;;
8572;SDS011;4324;42.012;24.872;2023-04-06T11:36:26;7.10;;;6.23;;
8572;SDS011;4324;42.012;24.872;2023-04-06T11:38:56;7.07;;;6.47;;
8572;SDS011;4324;42.012;24.872;2023-04-06T11:41:26;6.10;;;5.57;;
8572;SDS011;4324;42.012;24.872;2023-04-06T11:43:55;5.80;;;5.17;;
8572;SDS011;4324;42.012;24.872;2023-04-06T11:46:22;5.40;;;4.90;;
8572;SDS011;4324;42.012;24.872;2023-04-06T11:48:49;5.33;;;4.60;;
8572;SDS011;4324;42.012;24.872;2023-04-06T11:51:22;6.40;;;5.80;;
8572;SDS011;4324;42.012;24.872;2023-04-06T11:53:50;6.70;;;6.07;;
8572;SDS011;4324;42.012;24.872;2023-04-06T11:56:24;7.13;;;6.10;;
8572;SDS011;4324;42.012;24.872;2023-04-06T11:58:52;6.30;;;5.70;;
8572;SDS011;4324;42.012;24.872;2023-04-06T12:01:19;7.53;;;6.20;;
8572;SDS011;4324;42.012;24.872;2023-04-06T12:03:46;8.03;;;5.90;;
8572;SDS011;4324;42.012;24.872;2023-04-06T12:06:13;7.37;;;6.07;;
8572;SDS011;4324;42.012;24.872;2023-04-06T12:08:41;7.07;;;6.47;;
8572;SDS011;4324;42.012;24.872;2023-04-06T12:11:09;7.10;;;6.40;;
8572;SDS011;4324;42.012;24.872;2023-04-06T12:13:37;7.73;;;7.07;;
8572;SDS011;4324;42.012;24.872;2023-04-06T12:16:04;7.90;;;7.10;;
8572;SDS011;4324;42.012;24.872;2023-04-06T12:18:31;8.03;;;7.30;;
8572;SDS011;4324;42.012;24.872;2023-04-06T12:20:58;6.60;;;6.00;;
8572;SDS011;4324;42.012;24.872;2023-04-06T12:23:25;6.97;;;6.30;;
8572;SDS011;4324;42.012;24.872;2023-04-06T12:25:53;7.03;;;6.33;;
8572;SDS011;4324;42.012;24.872;2023-04-06T12:28:20;6.87;;;5.80;;
8572;SDS011;4324;42.012;24.872;2023-04-06T12:30:52;5.87;;;5.37;;
8572;SDS011;4324;42.012;24.872;2023-04-06T12:33:20;7.40;;;6.70;;
8572;SDS011;4324;42.012;24.872;2023-04-06T12:35:49;8.30;;;6.43;;
8572;SDS011;4324;42.012;24.872;2023-04-06T12:38:16;11.70;;;8.50;;
8572;SDS011;4324;42.012;24.872;2023-04-06T12:40:43;8.83;;;6.77;;
8572;SDS011;4324;42.012;24.872;2023-04-06T12:43:11;7.70;;;7.10;;
8572;SDS011;4324;42.012;24.872;2023-04-06T12:45:39;7.77;;;6.93;;
8572;SDS011;4324;42.012;24.872;2023-04-06T12:48:06;8.33;;;7.63;;
8572;SDS011;4324;42.012;24.872;2023-04-06T12:50:33;7.80;;;7.00;;
8572;SDS011;4324;42.012;24.872;2023-04-06T12:53:00;8.63;;;7.53;;
8572;SDS011;4324;42.012;24.872;2023-04-06T12:55:29;8.63;;;7.80;;
8572;SDS011;4324;42.012;24.872;2023-04-06T12:57:59;8.67;;;7.87;;
8572;SDS011;4324;42.012;24.872;2023-04-06T13:00:27;7.90;;;7.30;;
8572;SDS011;4324;42.012;24.872;2023-04-06T13:02:55;8.27;;;7.57;;
8572;SDS011;4324;42.012;24.872;2023-04-06T13:05:22;8.10;;;7.30;;
8572;SDS011;4324;42.012;24.872;2023-04-06T13:07:49;7.43;;;6.73;;
8572;SDS011;4324;42.012;24.872;2023-04-06T13:10:16;9.53;;;7.57;;
8572;SDS011;4324;42.012;24.872;2023-04-06T13:12:43;9.53;;;8.63;;
8572;SDS011;4324;42.012;24.872;2023-04-06T13:15:11;7.50;;;6.80;;
8572;SDS011;4324;42.012;24.872;2023-04-06T13:17:39;8.37;;;7.57;;
8572;SDS011;4324;42.012;24.872;2023-04-06T13:20:06;7.57;;;6.97;;
8572;SDS011;4324;42.012;24.872;2023-04-06T13:22:34;7.70;;;6.73;;
8572;SDS011;4324;42.012;24.872;2023-04-06T13:25:01;9.07;;;7.47;;
8572;SDS011;4324;42.012;24.872;2023-04-06T13:27:28;7.43;;;6.73;;
8572;SDS011;4324;42.012;24.872;2023-04-06T13:29:59;8.83;;;7.93;;
8572;SDS011;4324;42.012;24.872;2023-04-06T13:32:26;10.33;;;7.30;;
8572;SDS011;4324;42.012;24.872;2023-04-06T13:34:55;8.23;;;7.43;;
8572;SDS011;4324;42.012;24.872;2023-04-06T13:37:23;7.17;;;6.50;;
8572;SDS011;4324;42.012;24.872;2023-04-06T13:39:50;6.37;;;5.83;;
8572;SDS011;4324;42.012;24.872;2023-04-06T13:42:17;7.40;;;6.70;;
8572;SDS011;4324;42.012;24.872;2023-04-06T13:44:44;8.43;;;7.70;;
8572;SDS011;4324;42.012;24.872;2023-04-06T13:47:12;7.10;;;6.50;;
8572;SDS011;4324;42.012;24.872;2023-04-06T13:49:40;8.73;;;7.73;;
8572;SDS011;4324;42.012;24.872;2023-04-06T13:52:09;7.50;;;6.90;;
8572;SDS011;4324;42.012;24.872;2023-04-06T13:54:36;8.97;;;8.07;;
8572;SDS011;4324;42.012;24.872;2023-04-06T13:57:03;9.03;;;7.73;;
8572;SDS011;4324;42.012;24.872;2023-04-06T13:59:32;8.40;;;7.40;;
8572;SDS011;4324;42.012;24.872;2023-04-06T14:02:00;8.70;;;7.80;;
8572;SDS011;4324;42.012;24.872;2023-04-06T14:04:27;9.20;;;8.33;;
8572;SDS011;4324;42.012;24.872;2023-04-06T14:06:54;11.63;;;9.73;;
8572;SDS011;4324;42.012;24.872;2023-04-06T14:09:22;7.70;;;6.93;;
8572;SDS011;4324;42.012;24.872;2023-04-06T14:11:49;8.23;;;7.53;;
8572;SDS011;4324;42.012;24.872;2023-04-06T14:14:16;7.47;;;6.87;;
8572;SDS011;4324;42.012;24.872;2023-04-06T14:16:43;8.47;;;7.77;;
8572;SDS011;4324;42.012;24.872;2023-04-06T14:19:11;8.90;;;8.10;;
8572;SDS011;4324;42.012;24.872;2023-04-06T14:21:39;8.67;;;7.43;;
8572;SDS011;4324;42.012;24.872;2023-04-06T14:24:06;8.03;;;7.30;;
8572;SDS011;4324;42.012;24.872;2023-04-06T14:26:35;8.20;;;7.43;;
8572;SDS011;4324;42.012;24.872;2023-04-06T14:29:02;8.40;;;7.60;;
8572;SDS011;4324;42.012;24.872;2023-04-06T14:31:29;8.10;;;7.30;;
8572;SDS011;4324;42.012;24.872;2023-04-06T14:33:57;7.53;;;6.80;;
8572;SDS011;4324;42.012;24.872;2023-04-06T14:36:24;7.83;;;7.13;;
8572;SDS011;4324;42.012;24.872;2023-04-06T14:38:52;8.03;;;7.30;;
8572;SDS011;4324;42.012;24.872;2023-04-06T14:41:19;8.37;;;7.17;;
8572;SDS011;4324;42.012;24.872;2023-04-06T14:43:50;7.87;;;7.03;;
8572;SDS011;4324;42.012;24.872;2023-04-06T14:46:18;8.83;;;8.03;;
8572;SDS011;4324;42.012;24.872;2023-04-06T14:48:47;10.13;;;7.80;;
8572;SDS011;4324;42.012;24.872;2023-04-06T14:51:14;10.93;;;9.37;;
8572;SDS011;4324;42.012;24.872;2023-04-06T14:53:41;8.77;;;7.97;;
8572;SDS011;4324;42.012;24.872;2023-04-06T14:56:08;7.67;;;7.07;;